This is the latest recevied weather packets stored in our database for station/object HP3ICC-22. If no packets are shown the sender has not sent any weather packets the latest 10 day(s).
| Time | Temp. | Humidity | Pressure | Rain* | Wind** | Luminosity | Snow |
|---|---|---|---|---|---|---|---|
| 1778048657 | 10° C | 79% | 1014 hPa | 0 mm | - | - | - |
| 1778048597 | 10° C | 79% | 1014 hPa | 0 mm | - | - | - |
| 1778047456 | 9.44° C | 90% | 1014 hPa | 0 mm | - | - | - |
| 1778047396 | 9.44° C | 90% | 1014 hPa | 0 mm | - | - | - |
| 1778046256 | 10° C | 79% | 1015 hPa | 0 mm | - | - | - |
| 1778046195 | 10° C | 79% | 1015 hPa | 0 mm | - | - | - |
| 1778045055 | 9.44° C | 86% | 1015 hPa | 0 mm | - | - | - |
| 1778044995 | 9.44° C | 86% | 1015 hPa | 0 mm | - | - | - |
| 1778043855 | 9.44° C | 81% | 1015 hPa | 0 mm | - | - | - |
| 1778043794 | 9.44° C | 81% | 1015 hPa | 0 mm | - | - | - |
| 1778042654 | 10.56° C | 79% | 1015 hPa | 0 mm | - | - | - |
| 1778042594 | 10.56° C | 79% | 1015 hPa | 0 mm | - | - | - |
| 1778041454 | 9.44° C | 91% | 1015 hPa | 0 mm | - | - | - |
| 1778041394 | 9.44° C | 91% | 1015 hPa | 0 mm | - | - | - |
| 1778040253 | 10° C | 91% | 1014 hPa | 0 mm | - | - | - |
| 1778040193 | 10° C | 91% | 1014 hPa | 0 mm | - | - | - |
| 1778039053 | 10.56° C | 79% | 1015 hPa | 0 mm | - | - | - |
| 1778038992 | 10.56° C | 79% | 1015 hPa | 0 mm | - | - | - |
| 1778037852 | 10° C | 87% | 1014 hPa | 0 mm | - | - | - |
| 1778037792 | 10° C | 87% | 1014 hPa | 0 mm | - | - | - |
| 1778036651 | 10° C | 81% | 1014 hPa | 0 mm | - | - | - |
| 1778036591 | 10° C | 81% | 1014 hPa | 0 mm | - | - | - |
| 1778035451 | 11.11° C | 79% | 1015 hPa | 0 mm | - | - | - |
| 1778035391 | 11.11° C | 79% | 1015 hPa | 0 mm | - | - | - |
| 1778034251 | 10° C | 87% | 1015 hPa | 0 mm | - | - | - |
* Rain latest hour (hover to see other rain measurements)
** Current wind speed in m/s (hover to see current wind gust speed)